Latheron, United Kingdom
Current Conditions -  °F | °C
As of 7:50 AM on Thursday 29 Jan 2015 (Local Time) from EGPC Reporting Station
Few Clouds Few Clouds  
Wind Chill: -6°   Ceiling: Unl
Heat Index: -1°   Visibility: 6mi
Dew Point: -2°   Wind: 10mph
Humidity: 93%   Direction: 280°W
Pressure: 28.64"   Gusts: NA
Location:  58.29°N, 3.35°W
Report Text: EGPC 290750Z 28009KT 9999 FEW016CB M01/M02 Q0970
Loading
Personal Weather Stations






























Interactive Weather Map New forecast layout! Learn more

10-Day Weather Forecast

Advertisements
Track Severe Weather on mobile